Time;durP1;ratioP1;P1;durP2;ratioP2;P2;SDS_P1;SDS_P2;PMS_P1;PMS_P2;Temp;Humidity;BMP_temperature;BMP_pressure;BME280_temperature;BME280_humidity;BME280_pressure;Samples;Min_cycle;Max_cycle;Signal;HPM_P1;HPM_P2
2021/10/31 00:00:46;;;;;;;25.35;16.65;;;;;;;13.98;58.10;99836.64;3015830;78;21009;-76
2021/10/31 00:04:51;;;;;;;25.27;18.73;;;;;;;13.95;58.33;99842.28;3021956;78;20943;-79
2021/10/31 00:08:56;;;;;;;21.50;16.00;;;;;;;13.96;58.29;99840.80;3030026;78;20931;-79
2021/10/31 00:12:57;;;;;;;22.05;17.40;;;;;;;13.83;58.71;99837.22;3019115;77;21014;-78
2021/10/31 00:16:59;;;;;;;22.35;16.90;;;;;;;13.79;58.81;99838.54;2993029;79;21288;-75
2021/10/31 00:21:01;;;;;;;22.85;14.93;;;;;;;13.78;58.81;99836.86;3016965;79;20998;-77
2021/10/31 00:25:05;;;;;;;25.48;19.17;;;;;;;13.71;59.02;99834.46;2993428;79;20973;-77
2021/10/31 00:29:08;;;;;;;16.20;14.13;;;;;;;13.80;58.81;99830.86;3016615;79;21041;-74
2021/10/31 00:33:10;;;;;;;21.68;16.95;;;;;;;13.73;59.03;99841.82;2993459;79;21024;-79
2021/10/31 00:37:11;;;;;;;22.75;17.35;;;;;;;13.84;58.67;99835.38;2993621;79;21028;-74
2021/10/31 00:41:13;;;;;;;20.40;15.70;;;;;;;13.85;58.68;99839.72;2993624;79;21037;-75
2021/10/31 00:45:16;;;;;;;25.20;16.00;;;;;;;13.80;58.79;99842.89;3000811;79;20981;-71
2021/10/31 00:49:18;;;;;;;22.98;16.97;;;;;;;13.74;59.02;99850.70;2979134;78;20968;-74
2021/10/31 00:53:20;;;;;;;20.05;15.00;;;;;;;13.74;58.89;99843.50;2975963;80;21036;-75
2021/10/31 00:57:23;;;;;;;19.20;15.55;;;;;;;13.74;59.04;99860.05;2976434;80;21041;-74
2021/10/31 01:01:27;;;;;;;25.85;17.02;;;;;;;13.78;58.86;99863.59;2975345;80;20957;-79
2021/10/31 01:05:34;;;;;;;19.82;14.78;;;;;;;13.73;58.95;99871.22;2975877;80;21140;-75
2021/10/31 01:14:47;;;;;;;19.65;14.47;;;;;;;13.73;59.06;99875.23;2826494;78;21075;-72
2021/10/31 01:19:45;;;;;;;19.48;14.38;;;;;;;13.70;58.89;99877.73;2803334;84;20997;-75
2021/10/31 01:24:26;;;;;;;20.30;14.28;;;;;;;13.66;58.85;99865.69;2804739;83;21904;-77
2021/10/31 01:29:00;;;;;;;16.30;12.43;;;;;;;13.75;58.58;99867.07;2817395;83;21121;-72
2021/10/31 01:33:58;;;;;;;17.67;13.00;;;;;;;13.76;58.47;99871.42;2816593;81;21061;-75
2021/10/31 01:38:31;;;;;;;19.55;14.15;;;;;;;13.71;58.69;99871.87;2817606;81;21011;-73
2021/10/31 01:42:41;;;;;;;17.82;13.43;;;;;;;13.73;58.33;99871.73;2815100;81;20991;-76
2021/10/31 01:47:03;;;;;;;20.17;14.18;;;;;;;13.79;58.02;99871.95;2771908;83;21047;-74
2021/10/31 01:51:10;;;;;;;23.57;15.95;;;;;;;13.80;58.15;99877.64;2815694;82;20963;-72
2021/10/31 01:55:29;;;;;;;19.80;14.25;;;;;;;13.74;58.24;99886.27;2827080;83;21011;-74
2021/10/31 01:59:38;;;;;;;23.73;13.35;;;;;;;13.82;57.93;99880.14;2837919;84;21023;-77
2021/10/31 02:03:40;;;;;;;14.47;12.03;;;;;;;13.75;57.85;99874.58;2837911;82;20964;-72
2021/10/31 02:07:48;;;;;;;17.45;13.22;;;;;;;13.89;57.64;99887.89;2838281;84;20983;-77
2021/10/31 02:11:52;;;;;;;19.37;14.03;;;;;;;13.96;57.43;99889.44;2843969;83;21022;-77
2021/10/31 02:15:55;;;;;;;16.20;13.30;;;;;;;14.01;57.13;99887.13;2859514;80;21074;-74
2021/10/31 02:19:58;;;;;;;16.97;12.58;;;;;;;14.02;57.06;99893.30;2859294;83;21030;-76
2021/10/31 02:24:04;;;;;;;14.33;12.05;;;;;;;13.96;57.19;99902.81;2859690;82;21030;-73
2021/10/31 02:28:07;;;;;;;14.47;12.25;;;;;;;13.95;57.28;99901.10;2859872;80;21249;-77
2021/10/31 02:32:08;;;;;;;17.80;13.03;;;;;;;13.89;57.33;99899.06;2859877;81;21041;-71
2021/10/31 02:36:10;;;;;;;16.12;12.78;;;;;;;13.85;57.74;99888.69;2859413;80;21054;-75
2021/10/31 02:40:17;;;;;;;17.95;12.80;;;;;;;13.79;57.75;99893.82;2850010;81;21060;-75
2021/10/31 02:44:19;;;;;;;15.03;12.80;;;;;;;13.83;57.63;99889.83;2792530;85;21031;-75
2021/10/31 02:48:21;;;;;;;23.95;13.10;;;;;;;13.81;57.79;99890.01;2845980;83;21001;-73
2021/10/31 02:52:50;;;;;;;22.80;14.70;;;;;;;13.80;57.82;99885.66;2845468;81;21044;-72
2021/10/31 02:57:20;;;;;;;14.93;12.63;;;;;;;13.82;57.87;99886.34;2848777;79;22713;-71
2021/10/31 03:01:25;;;;;;;18.80;13.50;;;;;;;13.75;58.13;99892.46;2845078;78;21075;-72
2021/10/31 03:05:27;;;;;;;13.68;11.78;;;;;;;13.74;58.33;99890.78;2868368;81;21015;-73
2021/10/31 03:09:29;;;;;;;15.15;11.75;;;;;;;13.76;58.25;99888.80;2855164;81;21008;-73
2021/10/31 03:13:31;;;;;;;17.12;13.20;;;;;;;13.76;58.26;99888.80;2833348;82;21344;-72
2021/10/31 03:17:33;;;;;;;16.52;12.68;;;;;;;13.73;58.40;99889.94;2840604;82;21001;-73
2021/10/31 03:21:34;;;;;;;17.57;12.88;;;;;;;13.69;58.77;99892.58;2819796;82;21334;-75
2021/10/31 03:25:36;;;;;;;15.23;13.22;;;;;;;13.64;59.21;99901.58;2819550;83;21010;-73
2021/10/31 03:29:38;;;;;;;19.05;12.80;;;;;;;13.68;59.39;99905.12;2819480;82;20984;-73
2021/10/31 03:33:40;;;;;;;17.92;14.13;;;;;;;13.73;59.06;99906.48;2819960;84;21051;-74
2021/10/31 03:37:44;;;;;;;17.30;14.90;;;;;;;13.66;59.39;99903.59;2819826;84;21055;-72
2021/10/31 03:41:46;;;;;;;22.00;15.03;;;;;;;13.62;59.82;99908.91;2820373;84;20980;-72
2021/10/31 03:45:49;;;;;;;20.43;13.18;;;;;;;13.56;60.01;99915.22;2820348;83;21003;-75
2021/10/31 03:49:51;;;;;;;17.20;14.60;;;;;;;13.48;60.29;99913.80;2819874;82;21039;-74
2021/10/31 03:53:52;;;;;;;16.48;13.05;;;;;;;13.42;60.76;99922.41;2819853;82;21058;-78
2021/10/31 03:57:56;;;;;;;33.08;16.40;;;;;;;13.35;60.93;99919.98;2819785;82;21090;-72
2021/10/31 04:01:58;;;;;;;21.85;13.28;;;;;;;13.40;60.90;99923.06;2820088;83;21062;-75
2021/10/31 04:06:00;;;;;;;14.95;12.35;;;;;;;13.39;60.87;99926.22;2820097;84;20971;-78
2021/10/31 04:10:03;;;;;;;17.73;14.43;;;;;;;13.31;61.18;99922.63;2819692;84;20978;-73
2021/10/31 04:14:05;;;;;;;22.30;15.13;;;;;;;13.32;61.21;99934.51;2877882;82;20994;-79
2021/10/31 04:18:06;;;;;;;20.85;14.63;;;;;;;13.36;61.24;99935.02;2878349;82;20975;-75
2021/10/31 04:22:08;;;;;;;18.48;14.70;;;;;;;13.31;61.32;99943.52;2900327;81;21007;-72
2021/10/31 04:26:11;;;;;;;18.55;13.30;;;;;;;13.31;61.37;99946.19;2929602;81;21042;-77
2021/10/31 04:30:13;;;;;;;17.52;14.50;;;;;;;13.33;61.41;99945.53;2878166;81;21035;-72
2021/10/31 04:34:15;;;;;;;25.85;14.43;;;;;;;13.27;61.52;99937.63;2893827;81;20995;-74
2021/10/31 04:38:22;;;;;;;22.07;14.38;;;;;;;13.32;61.63;99943.86;2878499;81;21058;-72
2021/10/31 04:42:28;;;;;;;;;;;;;;;13.33;61.66;99948.69;2880991;82;21057;-74
2021/10/31 04:46:25;;;;;;;17.52;13.90;;;;;;;13.32;62.01;99938.99;2877817;82;20143;-77
2021/10/31 04:50:27;;;;;;;20.23;14.63;;;;;;;13.29;62.35;99939.65;2878338;82;21026;-79
2021/10/31 04:54:30;;;;;;;16.57;14.78;;;;;;;13.29;62.04;99936.16;2879053;81;21109;-75
2021/10/31 04:58:32;;;;;;;20.80;15.05;;;;;;;13.32;62.20;99943.00;2878503;81;21014;-75
2021/10/31 05:02:35;;;;;;;18.87;13.03;;;;;;;13.22;62.48;99953.76;2919342;79;21310;-73
2021/10/31 05:06:39;;;;;;;19.65;15.50;;;;;;;13.19;62.50;99954.06;2924435;79;20999;-78
2021/10/31 05:10:40;;;;;;;21.80;15.20;;;;;;;13.22;62.47;99950.61;2981237;78;20986;-75
2021/10/31 05:14:42;;;;;;;19.25;14.13;;;;;;;13.07;62.92;99942.28;2965277;78;20987;-73
2021/10/31 05:18:44;;;;;;;20.32;14.43;;;;;;;12.92;63.33;99955.27;2930931;79;21038;-71
2021/10/31 05:22:46;;;;;;;21.00;14.80;;;;;;;13.02;63.07;99955.22;2873775;81;20964;-72
2021/10/31 05:26:47;;;;;;;20.27;14.28;;;;;;;13.08;63.01;99960.45;2907875;79;20995;-71
2021/10/31 05:30:49;;;;;;;18.70;15.08;;;;;;;13.10;63.17;99950.47;2972750;80;20995;-71
2021/10/31 05:34:51;;;;;;;21.05;14.87;;;;;;;13.08;63.26;99948.45;2957668;80;21082;-71
2021/10/31 05:38:53;;;;;;;24.43;15.23;;;;;;;13.13;63.32;99954.16;2946670;80;21050;-71
2021/10/31 05:42:55;;;;;;;16.02;13.65;;;;;;;13.11;63.60;99962.83;2915250;81;21105;-73
2021/10/31 05:46:57;;;;;;;20.57;15.60;;;;;;;13.09;63.59;99961.66;2890877;81;21054;-73
2021/10/31 05:50:58;;;;;;;23.30;17.62;;;;;;;13.14;63.78;99970.53;2901088;80;21034;-71
2021/10/31 05:55:02;;;;;;;20.10;14.50;;;;;;;13.22;63.60;99971.97;2855110;82;21129;-72
2021/10/31 05:59:03;;;;;;;21.85;15.55;;;;;;;13.28;63.58;99975.88;2843139;83;21071;-72
2021/10/31 06:03:05;;;;;;;17.00;13.72;;;;;;;13.29;63.39;99970.36;2843945;83;21078;-71
2021/10/31 06:07:07;;;;;;;23.98;14.23;;;;;;;13.46;63.10;99975.91;2900920;80;21031;-72
2021/10/31 06:11:13;;;;;;;18.02;14.35;;;;;;;13.51;62.79;99975.45;2980271;80;20996;-70
2021/10/31 06:15:18;;;;;;;18.37;14.20;;;;;;;13.59;62.84;99981.38;2983939;79;21042;-71
2021/10/31 06:19:21;;;;;;;16.00;13.58;;;;;;;13.65;62.70;99983.42;2906205;80;20990;-72
2021/10/31 06:23:23;;;;;;;20.97;13.55;;;;;;;13.65;62.61;99994.12;2895350;82;21031;-71
2021/10/31 06:27:25;;;;;;;19.87;15.38;;;;;;;13.66;62.53;99985.10;2847180;83;21047;-72
2021/10/31 06:31:27;;;;;;;22.60;12.85;;;;;;;13.72;62.72;99985.81;2956281;80;21014;-71
2021/10/31 06:35:30;;;;;;;19.90;14.30;;;;;;;13.76;62.33;99975.66;2956141;80;21007;-73
2021/10/31 06:39:33;;;;;;;21.75;14.53;;;;;;;13.92;62.14;99980.30;2956353;80;21019;-72
2021/10/31 06:43:36;;;;;;;20.88;15.32;;;;;;;13.98;62.03;99981.86;2956127;80;21054;-72
2021/10/31 06:47:38;;;;;;;21.95;15.80;;;;;;;14.00;61.72;99977.19;2956356;80;21039;-73
2021/10/31 06:51:39;;;;;;;17.25;13.32;;;;;;;14.07;61.54;99977.41;2956032;80;21011;-71
2021/10/31 06:55:41;;;;;;;17.90;13.18;;;;;;;14.17;61.41;99979.16;2894380;80;21015;-71
2021/10/31 06:59:43;;;;;;;18.48;14.43;;;;;;;14.31;60.84;99987.92;2876624;82;21011;-71
2021/10/31 07:03:46;;;;;;;19.92;16.07;;;;;;;14.31;60.65;99991.94;2915077;81;21060;-71
2021/10/31 07:07:47;;;;;;;17.75;13.50;;;;;;;14.45;60.56;99995.04;2927724;81;20975;-71
2021/10/31 07:11:52;;;;;;;16.10;12.85;;;;;;;14.54;60.35;99992.25;2927468;81;21376;-74
2021/10/31 07:15:54;;;;;;;15.32;12.37;;;;;;;14.64;60.44;100001.50;2927255;81;21070;-73
2021/10/31 07:19:56;;;;;;;19.17;14.93;;;;;;;14.65;60.39;99997.83;2928474;81;21004;-71
2021/10/31 07:23:57;;;;;;;19.52;13.68;;;;;;;14.69;60.40;99996.50;2897109;80;20994;-71
2021/10/31 07:27:59;;;;;;;19.48;14.07;;;;;;;14.69;60.22;100005.88;2877310;82;20990;-71
2021/10/31 07:32:02;;;;;;;18.30;15.30;;;;;;;14.71;60.11;99999.89;2905242;80;21000;-72
2021/10/31 07:36:04;;;;;;;21.40;14.33;;;;;;;14.74;60.58;100004.09;2930353;81;21059;-73
2021/10/31 07:40:07;;;;;;;17.82;13.58;;;;;;;14.74;60.00;99997.88;2919932;81;21018;-71
2021/10/31 07:44:09;;;;;;;16.27;13.25;;;;;;;14.79;60.09;100000.94;2893599;79;21065;-71
2021/10/31 07:48:11;;;;;;;19.07;13.53;;;;;;;14.89;60.15;100013.69;2890249;81;21097;-71
2021/10/31 07:52:13;;;;;;;25.55;15.18;;;;;;;14.90;60.47;100008.67;2904137;81;21058;-72
2021/10/31 07:56:17;;;;;;;19.60;14.28;;;;;;;14.96;60.24;100001.84;2923215;81;20998;-71
2021/10/31 08:00:18;;;;;;;14.40;12.05;;;;;;;15.11;60.47;100011.43;2872702;81;21053;-71
2021/10/31 08:04:22;;;;;;;18.45;12.98;;;;;;;15.26;60.34;100000.42;2866940;82;21041;-72
2021/10/31 08:08:27;;;;;;;18.02;14.25;;;;;;;15.39;59.55;100003.15;2868902;82;21087;-71
2021/10/31 08:12:29;;;;;;;17.00;12.17;;;;;;;15.47;59.00;99996.45;2892646;81;21005;-72
2021/10/31 08:16:32;;;;;;;15.40;11.28;;;;;;;15.58;59.29;100000.66;2892607;81;21272;-75
2021/10/31 08:20:34;;;;;;;17.80;12.78;;;;;;;15.63;58.52;100001.50;2885928;82;21043;-72
2021/10/31 08:24:36;;;;;;;16.05;12.50;;;;;;;15.71;58.50;100006.86;2892457;81;21015;-73
2021/10/31 08:28:40;;;;;;;16.23;13.08;;;;;;;15.91;58.70;100003.88;2896604;79;21005;-74
2021/10/31 08:32:47;;;;;;;18.12;12.10;;;;;;;15.98;58.32;99996.86;2900146;80;20999;-75
2021/10/31 08:36:50;;;;;;;13.83;11.63;;;;;;;16.06;57.96;99988.80;2896915;79;21067;-71
2021/10/31 08:40:55;;;;;;;14.18;11.93;;;;;;;16.11;57.24;99991.83;2889545;81;20997;-71
2021/10/31 08:44:57;;;;;;;16.00;12.55;;;;;;;16.15;57.13;99984.78;2879155;82;21001;-73
2021/10/31 08:48:59;;;;;;;19.85;13.28;;;;;;;16.13;57.38;99987.13;2880468;81;21051;-73
2021/10/31 08:53:03;;;;;;;18.98;11.70;;;;;;;16.17;57.38;99987.61;2868132;80;21056;-73
2021/10/31 08:57:06;;;;;;;17.07;10.78;;;;;;;16.17;57.13;99986.78;2870751;82;20991;-71
2021/10/31 09:01:11;;;;;;;17.50;11.50;;;;;;;16.28;57.10;99983.73;2861841;82;21012;-73
2021/10/31 09:05:14;;;;;;;18.82;12.85;;;;;;;16.32;57.60;99982.41;2882096;82;21057;-74
2021/10/31 09:09:19;;;;;;;13.45;10.85;;;;;;;16.34;57.07;99976.84;2903560;82;21121;-74
2021/10/31 09:13:22;;;;;;;17.30;12.50;;;;;;;16.31;57.92;99960.60;2917306;80;21044;-72
2021/10/31 09:17:25;;;;;;;20.15;13.90;;;;;;;16.21;58.02;99958.59;2907317;81;21055;-73
2021/10/31 09:21:28;;;;;;;16.93;12.73;;;;;;;16.17;58.31;99956.75;2904432;80;21083;-73
2021/10/31 09:25:30;;;;;;;37.42;27.20;;;;;;;16.20;58.53;99956.41;2890396;81;21051;-71
2021/10/31 09:29:32;;;;;;;13.80;11.53;;;;;;;16.31;58.69;99948.52;2904388;82;21061;-72
2021/10/31 09:33:35;;;;;;;18.67;12.90;;;;;;;16.32;58.32;99938.12;2893100;82;21031;-72
2021/10/31 09:37:37;;;;;;;18.10;13.45;;;;;;;16.42;58.37;99936.06;2905216;82;20968;-71
2021/10/31 09:41:39;;;;;;;18.40;13.25;;;;;;;16.60;58.51;99924.25;2904975;81;21007;-73
2021/10/31 09:45:41;;;;;;;17.35;15.13;;;;;;;16.68;58.00;99925.55;2904160;81;21438;-73
2021/10/31 09:49:42;;;;;;;19.73;13.22;;;;;;;16.84;57.68;99926.00;2902574;82;21031;-72
2021/10/31 09:53:44;;;;;;;16.15;11.68;;;;;;;16.94;57.50;99914.18;2902505;82;21611;-71
2021/10/31 09:57:46;;;;;;;15.55;13.83;;;;;;;17.12;57.00;99923.36;2902626;81;21027;-72
2021/10/31 10:06:19;;;;;;;17.30;12.25;;;;;;;17.40;56.36;99913.41;2903258;81;21016;-71
2021/10/31 10:10:21;;;;;;;19.40;13.22;;;;;;;17.55;55.97;99915.64;2900270;80;21035;-71
2021/10/31 10:14:30;;;;;;;20.00;11.53;;;;;;;17.71;55.73;99919.22;2862997;81;20956;-72
2021/10/31 10:18:33;;;;;;;19.48;14.43;;;;;;;17.93;55.63;99913.97;2875503;82;21063;-73
2021/10/31 10:22:37;;;;;;;14.80;11.50;;;;;;;18.13;55.33;99908.41;2887131;81;21022;-74
2021/10/31 10:26:43;;;;;;;19.32;12.45;;;;;;;18.30;55.01;99900.65;2901069;81;21258;-77
2021/10/31 10:30:45;;;;;;;16.93;12.58;;;;;;;18.47;53.74;99897.23;2892127;82;21021;-71
2021/10/31 10:34:53;;;;;;;13.13;9.70;;;;;;;18.59;53.60;99895.75;2903052;81;21039;-69
2021/10/31 10:39:16;;;;;;;13.62;11.95;;;;;;;18.80;53.72;99901.72;2903149;81;21326;-73
2021/10/31 10:43:23;;;;;;;13.03;10.10;;;;;;;19.05;54.09;99901.39;2895080;79;21051;-76
2021/10/31 10:47:25;;;;;;;13.13;11.73;;;;;;;19.24;52.47;99891.82;2904262;81;20984;-73
2021/10/31 10:51:27;;;;;;;12.18;9.83;;;;;;;19.34;51.54;99886.63;2890146;81;21034;-73
2021/10/31 10:55:32;;;;;;;11.40;9.45;;;;;;;19.37;51.65;99879.50;2902344;82;21261;-73
2021/10/31 10:59:37;;;;;;;19.07;10.82;;;;;;;19.61;51.97;99872.02;2907850;80;20976;-72
2021/10/31 11:03:41;;;;;;;;;;;;;;;19.76;51.25;99861.97;2903019;81;21086;-74
2021/10/31 11:07:46;;;;;;;12.63;9.50;;;;;;;19.82;50.88;99849.56;2895915;81;20099;-72
2021/10/31 11:11:48;;;;;;;;;;;;;;;19.82;50.65;99838.23;2880922;82;21027;-72
2021/10/31 11:15:50;;;;;;;13.32;9.65;;;;;;;19.86;51.36;99836.52;2884548;80;20174;-70
2021/10/31 11:19:56;;;;;;;10.20;8.50;;;;;;;19.91;50.99;99835.39;2862909;82;21020;-75
2021/10/31 11:23:58;;;;;;;15.70;10.30;;;;;;;20.03;51.18;99828.42;2888873;80;21046;-74
2021/10/31 11:28:04;;;;;;;12.58;11.22;;;;;;;20.19;51.40;99827.77;2880963;82;20916;-72
2021/10/31 11:32:07;;;;;;;12.50;9.20;;;;;;;20.24;50.12;99818.55;2892293;80;21004;-73
2021/10/31 11:36:10;;;;;;;14.03;9.08;;;;;;;20.33;49.74;99825.45;2897871;82;21043;-70
2021/10/31 11:40:14;;;;;;;14.38;10.45;;;;;;;20.40;49.12;99829.00;2883500;81;20949;-74
2021/10/31 11:44:16;;;;;;;17.75;11.83;;;;;;;20.53;50.01;99822.00;2901003;80;21000;-72
2021/10/31 11:48:27;;;;;;;25.88;15.90;;;;;;;20.53;49.24;99813.89;2903543;80;21027;-73
2021/10/31 11:52:57;;;;;;;11.78;9.80;;;;;;;20.61;49.77;99816.39;2891522;80;21019;-72
2021/10/31 11:57:25;;;;;;;13.72;10.10;;;;;;;20.66;49.69;99807.19;2890688;80;21031;-73
2021/10/31 12:01:37;;;;;;;13.13;8.53;;;;;;;20.78;50.10;99810.12;2795932;83;21072;-70
2021/10/31 12:05:39;;;;;;;9.63;8.55;;;;;;;20.72;49.07;99812.80;2880124;82;21073;-72
2021/10/31 12:09:41;;;;;;;16.40;11.80;;;;;;;20.78;49.47;99801.16;2897918;81;21019;-74
2021/10/31 12:13:48;;;;;;;15.18;9.50;;;;;;;20.80;49.54;99792.36;2897645;81;21069;-75
2021/10/31 12:18:05;;;;;;;14.70;9.48;;;;;;;20.85;49.80;99780.44;2848333;83;20960;-70
2021/10/31 12:22:19;;;;;;;11.90;9.08;;;;;;;20.86;49.80;99776.69;2856466;81;21103;-73
2021/10/31 12:26:23;;;;;;;12.50;8.30;;;;;;;20.84;49.83;99762.55;2883729;81;21039;-72
2021/10/31 12:30:36;;;;;;;10.58;9.18;;;;;;;20.74;49.43;99749.92;2876894;81;21015;-71
2021/10/31 12:34:40;;;;;;;20.82;15.23;;;;;;;20.65;49.77;99747.42;2877978;81;20968;-73
2021/10/31 12:38:43;;;;;;;22.22;12.28;;;;;;;20.60;50.09;99745.83;2888228;81;21074;-74
2021/10/31 12:42:58;;;;;;;15.10;10.75;;;;;;;20.68;50.28;99755.62;2892313;81;21031;-74
2021/10/31 12:47:04;;;;;;;12.65;9.78;;;;;;;20.66;51.43;99754.49;2869454;81;20975;-71
2021/10/31 12:51:19;;;;;;;11.90;8.60;;;;;;;20.67;49.64;99758.86;2879890;81;21069;-72
2021/10/31 12:55:23;;;;;;;13.93;10.53;;;;;;;20.64;49.75;99750.32;2875006;81;21054;-71
2021/10/31 12:59:25;;;;;;;36.00;12.43;;;;;;;20.55;49.83;99744.27;2913056;81;21106;-71
2021/10/31 13:03:28;;;;;;;12.23;8.48;;;;;;;20.44;50.17;99738.11;2903605;80;21102;-73
2021/10/31 13:07:50;;;;;;;14.98;8.60;;;;;;;20.40;50.07;99718.27;2858141;82;20996;-73
2021/10/31 13:11:57;;;;;;;13.60;9.43;;;;;;;20.38;50.72;99704.14;2890594;81;21274;-72
2021/10/31 13:16:01;;;;;;;14.75;8.95;;;;;;;20.43;50.41;99707.58;2833796;83;21165;-74
2021/10/31 13:20:30;;;;;;;13.15;8.78;;;;;;;20.34;49.27;99702.89;2829423;83;21053;-74
2021/10/31 13:24:36;;;;;;;19.02;13.65;;;;;;;20.35;49.40;99703.20;2834839;84;21008;-73
2021/10/31 13:28:49;;;;;;;21.23;15.53;;;;;;;20.41;50.48;99699.67;2833609;83;21093;-72
2021/10/31 13:32:52;;;;;;;14.63;11.40;;;;;;;20.38;49.27;99693.33;2829159;83;21111;-72
2021/10/31 13:36:53;;;;;;;13.18;10.58;;;;;;;20.39;49.68;99685.55;2896219;81;21080;-75
2021/10/31 13:40:56;;;;;;;12.75;10.72;;;;;;;20.40;49.61;99692.61;2897969;81;21066;-74
2021/10/31 13:45:02;;;;;;;13.53;10.15;;;;;;;20.35;49.83;99695.09;2868796;83;21066;-76
2021/10/31 13:49:09;;;;;;;11.05;9.10;;;;;;;20.28;49.60;99689.36;2838544;81;21026;-77
2021/10/31 13:53:10;;;;;;;41.18;11.50;;;;;;;20.26;50.41;99687.70;2883631;81;20959;-77
2021/10/31 13:57:20;;;;;;;11.38;9.45;;;;;;;20.09;50.80;99684.55;2871652;83;21007;-79
2021/10/31 14:01:44;;;;;;;15.72;9.93;;;;;;;20.02;50.52;99685.03;2862934;79;20983;-73
2021/10/31 14:05:47;;;;;;;12.75;9.00;;;;;;;19.84;50.84;99682.88;2876313;80;21019;-73
2021/10/31 14:09:51;;;;;;;13.53;10.55;;;;;;;19.69;50.35;99680.33;2901746;80;21026;-74
2021/10/31 14:22:14;;;;;;;13.10;10.53;;;;;;;19.46;51.99;99662.59;2853159;80;21122;-75
2021/10/31 14:26:19;;;;;;;13.45;9.60;;;;;;;19.28;52.11;99664.98;2882860;77;21431;-74
2021/10/31 14:30:29;;;;;;;13.30;9.93;;;;;;;19.21;52.51;99665.75;2864866;79;21042;-72
2021/10/31 14:34:34;;;;;;;15.15;11.40;;;;;;;19.12;52.76;99657.52;2887017;79;21038;-75
2021/10/31 14:38:39;;;;;;;12.60;10.28;;;;;;;19.02;52.98;99659.71;2880914;79;21017;-75
2021/10/31 14:42:40;;;;;;;15.05;11.22;;;;;;;18.89;52.92;99672.05;2892668;80;21001;-74
2021/10/31 14:46:51;;;;;;;14.90;10.32;;;;;;;18.75;53.49;99675.66;2902094;79;21037;-73
2021/10/31 14:50:53;;;;;;;17.10;10.08;;;;;;;18.63;53.78;99666.73;2890205;80;21074;-72
2021/10/31 14:54:55;;;;;;;19.42;13.55;;;;;;;18.44;54.36;99672.78;2881236;80;21377;-71
2021/10/31 14:59:02;;;;;;;47.88;23.87;;;;;;;18.29;54.93;99671.50;2871924;82;21032;-72
2021/10/31 15:03:01;;;;;;;64.42;35.68;;;;;;;18.07;55.30;99659.38;2872219;81;21032;-71
2021/10/31 15:07:03;;;;;;;162.97;72.92;;;;;;;17.82;55.98;99656.48;2872373;82;21009;-71
2021/10/31 15:11:05;;;;;;;71.67;39.90;;;;;;;17.65;55.97;99650.98;2872448;83;21059;-71
2021/10/31 15:15:08;;;;;;;37.05;22.05;;;;;;;17.36;57.08;99650.01;2872437;81;21047;-72
2021/10/31 15:19:10;;;;;;;19.12;12.20;;;;;;;17.11;57.66;99650.29;2872435;83;21032;-72
2021/10/31 15:23:12;;;;;;;23.60;13.00;;;;;;;16.95;57.60;99648.55;2872256;82;21032;-72
2021/10/31 15:27:15;;;;;;;18.75;13.35;;;;;;;16.85;57.81;99643.45;2872023;82;20953;-72
2021/10/31 15:31:17;;;;;;;22.35;14.53;;;;;;;16.88;57.86;99641.73;2872471;82;21080;-71
2021/10/31 15:35:19;;;;;;;14.53;12.35;;;;;;;16.72;59.04;99634.67;2872582;83;21012;-72
2021/10/31 15:39:20;;;;;;;46.65;15.83;;;;;;;16.46;59.49;99639.94;2872425;82;21051;-71
2021/10/31 15:43:22;;;;;;;20.08;14.35;;;;;;;16.23;59.88;99633.23;2872142;81;20980;-71
2021/10/31 15:47:23;;;;;;;26.68;15.70;;;;;;;15.97;60.50;99628.53;2898043;80;21638;-71
2021/10/31 15:51:26;;;;;;;28.70;17.82;;;;;;;15.74;61.09;99632.51;2902580;81;20999;-71
2021/10/31 15:55:30;;;;;;;28.75;17.57;;;;;;;15.58;61.46;99632.58;2902469;82;21045;-71
2021/10/31 15:59:31;;;;;;;25.27;17.27;;;;;;;15.42;61.57;99631.64;2902324;80;20999;-71
2021/10/31 16:03:34;;;;;;;21.48;15.68;;;;;;;15.31;61.81;99626.64;2902551;82;21058;-72
2021/10/31 16:07:36;;;;;;;44.55;17.95;;;;;;;15.23;61.91;99627.50;2902439;82;20991;-71
2021/10/31 16:11:37;;;;;;;40.30;21.02;;;;;;;15.08;62.08;99626.05;2902283;82;21058;-71
2021/10/31 16:15:39;;;;;;;42.45;31.62;;;;;;;14.96;62.32;99627.77;2902335;82;20935;-71
2021/10/31 16:19:41;;;;;;;30.27;20.30;;;;;;;14.85;62.41;99634.80;2902378;82;21018;-71
2021/10/31 16:23:44;;;;;;;36.68;28.27;;;;;;;14.66;63.05;99626.09;2901769;82;20952;-71
2021/10/31 16:27:47;;;;;;;33.60;21.65;;;;;;;14.67;63.08;99633.11;2902218;80;21069;-71
2021/10/31 16:31:51;;;;;;;23.30;18.37;;;;;;;14.70;62.49;99628.76;2902337;81;21061;-71
2021/10/31 16:35:53;;;;;;;27.48;24.12;;;;;;;14.67;62.35;99625.09;2902527;80;21022;-71
2021/10/31 16:39:55;;;;;;;25.27;18.60;;;;;;;14.49;63.33;99621.75;2902351;82;20991;-71
2021/10/31 16:43:57;;;;;;;29.55;21.42;;;;;;;14.03;65.00;99624.41;2902404;82;21033;-71
2021/10/31 16:47:59;;;;;;;41.55;28.05;;;;;;;13.66;66.17;99633.18;2902589;81;21270;-72
2021/10/31 16:52:00;;;;;;;45.38;32.08;;;;;;;13.46;67.03;99627.73;2902250;82;21030;-71
2021/10/31 16:56:02;;;;;;;31.65;24.32;;;;;;;13.28;67.49;99625.47;2902260;82;21038;-72
2021/10/31 17:00:08;;;;;;;32.73;22.13;;;;;;;13.16;67.92;99621.39;2902495;82;20975;-71
2021/10/31 17:04:11;;;;;;;38.78;22.40;;;;;;;13.06;68.25;99614.01;2902252;82;21360;-71
2021/10/31 17:08:19;;;;;;;38.08;21.73;;;;;;;12.93;68.72;99614.44;2902626;82;21042;-71
2021/10/31 17:12:21;;;;;;;47.03;27.00;;;;;;;12.90;69.11;99611.58;2902508;82;21432;-71
2021/10/31 17:16:22;;;;;;;31.57;20.20;;;;;;;12.97;69.09;99612.64;2875384;82;20991;-71
2021/10/31 17:20:24;;;;;;;34.20;24.87;;;;;;;12.89;69.33;99615.24;2902292;81;21058;-71
2021/10/31 17:24:26;;;;;;;29.20;22.65;;;;;;;12.80;69.40;99613.02;2902292;82;21030;-71
2021/10/31 17:28:27;;;;;;;35.78;22.02;;;;;;;12.68;69.56;99613.78;2902159;82;21095;-71
2021/10/31 17:32:29;;;;;;;32.00;23.75;;;;;;;12.64;69.52;99607.56;2901992;82;20995;-71
2021/10/31 17:36:32;;;;;;;58.17;36.40;;;;;;;12.50;70.12;99604.48;2890872;82;21122;-71
2021/10/31 17:40:34;;;;;;;32.98;23.92;;;;;;;12.31;70.75;99603.33;2884169;82;21003;-71
2021/10/31 17:44:45;;;;;;;45.48;24.60;;;;;;;12.31;70.29;99601.48;2887907;82;21002;-71
2021/10/31 17:48:47;;;;;;;45.25;26.33;;;;;;;12.35;70.74;99596.19;2893854;82;21059;-71
2021/10/31 17:52:50;;;;;;;28.98;23.02;;;;;;;12.40;70.27;99595.25;2884184;82;20976;-71
2021/10/31 17:56:52;;;;;;;29.75;22.17;;;;;;;12.38;69.70;99587.05;2884067;82;21035;-71
2021/10/31 18:00:53;;;;;;;34.55;27.22;;;;;;;12.33;70.07;99586.17;2884205;82;21293;-71
2021/10/31 18:04:55;;;;;;;58.42;40.52;;;;;;;11.98;71.37;99589.16;2883704;82;21035;-71
2021/10/31 18:08:57;;;;;;;82.27;54.03;;;;;;;11.85;71.82;99582.40;2884089;82;21045;-71
2021/10/31 18:12:59;;;;;;;51.85;34.85;;;;;;;11.68;72.00;99581.88;2884042;82;21050;-70
2021/10/31 18:17:01;;;;;;;89.80;45.15;;;;;;;11.71;71.84;99576.25;2883988;82;21046;-71
2021/10/31 18:21:03;;;;;;;42.73;25.90;;;;;;;11.78;71.11;99570.65;2884231;82;20972;-71
2021/10/31 18:25:07;;;;;;;31.10;21.40;;;;;;;11.66;71.19;99574.03;2883525;82;20976;-71
2021/10/31 18:29:12;;;;;;;35.50;24.63;;;;;;;11.63;71.23;99562.86;2892366;82;21026;-71
2021/10/31 18:33:16;;;;;;;29.05;19.05;;;;;;;11.68;70.97;99557.91;2902530;82;20999;-71
2021/10/31 18:37:26;;;;;;;42.78;23.80;;;;;;;11.76;70.30;99555.31;2902497;80;21027;-70
2021/10/31 18:45:45;;;;;;;27.32;18.62;;;;;;;12.00;68.95;99544.56;2848932;79;71115;-72
2021/10/31 18:49:47;;;;;;;38.75;23.15;;;;;;;12.03;68.43;99545.61;2848536;83;20997;-73
2021/10/31 18:53:49;;;;;;;30.90;20.43;;;;;;;11.87;68.88;99536.92;2848877;83;21024;-73
2021/10/31 18:57:55;;;;;;;24.82;19.05;;;;;;;11.69;69.33;99534.27;2848480;83;21004;-73
2021/10/31 19:01:57;;;;;;;33.05;19.77;;;;;;;11.60;69.54;99524.54;2848789;83;21386;-72
2021/10/31 19:06:00;;;;;;;33.92;19.48;;;;;;;11.60;69.01;99533.86;2848166;83;20993;-75
2021/10/31 19:10:05;;;;;;;25.62;16.55;;;;;;;11.64;68.70;99524.58;2848121;83;21016;-74